UAL1063 KEWR-MMMX
Flight info
| Callsign | UAL1063 |
|---|---|
| Flight time | 4h 34m |
| Altitude | 32000 |
| Route | LANNA J48 CSN DCT FANPO Q40 NIOLA DCT KWANE DCT TBD M345 AXEXO UM345 PAZ UT154 ENAGA ENAGA3A |
| Aircraft | B738/M-SDE2E3FGHIRWXY/LB1 |
Departure
| Time | 2026-05-05 12:50 |
|---|---|
| Airport | Newark Liberty International Airport (KEWR) |
Arrival
| Time | 2026-05-05 17:24 |
|---|---|
| Airport | Mexico City Benito Juárez International Airport (MMMX) |
| Time | Latitude | Longitude | Altitude | Speed | Heading |
|---|---|---|---|---|---|
| 2026-05-05 12:25 | 40.69711 | -74.17469 | 26 ft | 0 kts | 306° |
| 2026-05-05 12:40 | 40.69710 | -74.17467 | 26 ft | 1 kts | 306° |
| 2026-05-05 12:40 | 40.69701 | -74.17452 | 26 ft | 2 kts | 306° |
| 2026-05-05 12:41 | 40.69693 | -74.17436 | 26 ft | 2 kts | 313° |
| 2026-05-05 12:41 | 40.69680 | -74.17429 | 26 ft | 2 kts | 3° |
| 2026-05-05 12:41 | 40.69668 | -74.17432 | 26 ft | 0 kts | 37° |
| 2026-05-05 12:41 | 40.69669 | -74.17432 | 26 ft | 2 kts | 34° |
| 2026-05-05 12:42 | 40.69684 | -74.17416 | 26 ft | 0 kts | 41° |
| 2026-05-05 12:44 | 40.69687 | -74.17413 | 26 ft | 1 kts | 41° |
| 2026-05-05 12:44 | 40.69701 | -74.17397 | 26 ft | 3 kts | 41° |
| 2026-05-05 12:44 | 40.69727 | -74.17368 | 26 ft | 4 kts | 41° |
| 2026-05-05 12:44 | 40.69748 | -74.17343 | 26 ft | 3 kts | 41° |
| 2026-05-05 12:45 | 40.69759 | -74.17330 | 26 ft | 1 kts | 41° |
| 2026-05-05 12:45 | 40.69770 | -74.17319 | 26 ft | 2 kts | 41° |
| 2026-05-05 12:45 | 40.69795 | -74.17290 | 26 ft | 7 kts | 41° |
| 2026-05-05 12:45 | 40.69839 | -74.17245 | 26 ft | 7 kts | 18° |
| 2026-05-05 12:46 | 40.69883 | -74.17261 | 26 ft | 5 kts | 319° |
| 2026-05-05 12:46 | 40.69912 | -74.17303 | 26 ft | 7 kts | 308° |
| 2026-05-05 12:46 | 40.69943 | -74.17363 | 26 ft | 9 kts | 317° |
| 2026-05-05 12:46 | 40.70010 | -74.17378 | 26 ft | 11 kts | 15° |
| 2026-05-05 12:47 | 40.70037 | -74.17287 | 26 ft | 13 kts | 96° |
| 2026-05-05 12:47 | 40.70027 | -74.17159 | 26 ft | 15 kts | 96° |
| 2026-05-05 12:47 | 40.70015 | -74.17013 | 26 ft | 17 kts | 97° |
| 2026-05-05 12:47 | 40.69998 | -74.16846 | 26 ft | 18 kts | 98° |
| 2026-05-05 12:48 | 40.69992 | -74.16688 | 26 ft | 16 kts | 91° |
| 2026-05-05 12:48 | 40.70006 | -74.16551 | 26 ft | 14 kts | 47° |
| 2026-05-05 12:48 | 40.70063 | -74.16476 | 26 ft | 9 kts | 79° |
| 2026-05-05 12:48 | 40.70055 | -74.16394 | 26 ft | 8 kts | 118° |
| 2026-05-05 12:49 | 40.70006 | -74.16380 | 26 ft | 9 kts | 197° |
| 2026-05-05 12:49 | 40.69866 | -74.16468 | 26 ft | 49 kts | 205° |
| 2026-05-05 12:49 | 40.69353 | -74.16793 | 26 ft | 112 kts | 206° |
| 2026-05-05 12:49 | 40.68471 | -74.17351 | 27 ft | 164 kts | 206° |
| 2026-05-05 12:50 | 40.67387 | -74.18028 | 444 ft | 175 kts | 206° |
| 2026-05-05 12:50 | 40.66264 | -74.18573 | 1113 ft | 177 kts | 193° |
| 2026-05-05 12:50 | 40.65026 | -74.18742 | 1625 ft | 182 kts | 190° |
| 2026-05-05 12:50 | 40.63747 | -74.19003 | 1998 ft | 194 kts | 198° |
| 2026-05-05 12:51 | 40.62437 | -74.19615 | 2347 ft | 205 kts | 218° |
| 2026-05-05 12:51 | 40.61489 | -74.21019 | 2810 ft | 213 kts | 245° |
| 2026-05-05 12:51 | 40.60961 | -74.22878 | 3317 ft | 223 kts | 251° |
| 2026-05-05 12:51 | 40.60448 | -74.24846 | 3777 ft | 236 kts | 250° |
| 2026-05-05 12:52 | 40.59852 | -74.26889 | 4439 ft | 240 kts | 248° |
| 2026-05-05 12:52 | 40.59251 | -74.28933 | 5110 ft | 244 kts | 251° |
| 2026-05-05 12:52 | 40.58931 | -74.31113 | 5785 ft | 249 kts | 265° |
| 2026-05-05 12:52 | 40.58924 | -74.33398 | 6501 ft | 251 kts | 269° |
| 2026-05-05 12:53 | 40.58971 | -74.35674 | 7155 ft | 254 kts | 268° |
| 2026-05-05 12:53 | 40.58993 | -74.37977 | 7815 ft | 256 kts | 267° |
| 2026-05-05 12:53 | 40.58984 | -74.40340 | 8459 ft | 259 kts | 266° |
| 2026-05-05 12:53 | 40.58951 | -74.42696 | 9107 ft | 261 kts | 265° |
| 2026-05-05 12:54 | 40.58849 | -74.47493 | 10360 ft | 267 kts | 266° |
| 2026-05-05 12:54 | 40.58795 | -74.49998 | 10667 ft | 281 kts | 266° |
| 2026-05-05 12:54 | 40.58741 | -74.52596 | 11001 ft | 294 kts | 266° |
| 2026-05-05 12:55 | 40.58685 | -74.55356 | 11321 ft | 308 kts | 266° |
| 2026-05-05 12:55 | 40.58627 | -74.58227 | 11592 ft | 322 kts | 266° |
| 2026-05-05 12:55 | 40.58566 | -74.61240 | 11863 ft | 337 kts | 266° |
| 2026-05-05 12:55 | 40.58503 | -74.64342 | 12378 ft | 342 kts | 267° |
| 2026-05-05 12:56 | 40.58441 | -74.67436 | 12992 ft | 345 kts | 266° |
| 2026-05-05 12:56 | 40.58377 | -74.70591 | 13628 ft | 347 kts | 266° |
| 2026-05-05 12:56 | 40.58310 | -74.73782 | 14191 ft | 351 kts | 266° |
| 2026-05-05 12:56 | 40.58175 | -74.76971 | 14793 ft | 353 kts | 264° |
| 2026-05-05 12:57 | 40.57933 | -74.80175 | 15326 ft | 356 kts | 262° |
| 2026-05-05 12:57 | 40.57638 | -74.83436 | 15868 ft | 360 kts | 262° |
| 2026-05-05 12:57 | 40.57336 | -74.86689 | 16435 ft | 361 kts | 262° |
| 2026-05-05 12:57 | 40.57043 | -74.89949 | 16917 ft | 366 kts | 263° |
| 2026-05-05 12:58 | 40.56755 | -74.93284 | 17472 ft | 368 kts | 263° |
| 2026-05-05 12:58 | 40.56466 | -74.96629 | 17936 ft | 372 kts | 262° |
| 2026-05-05 12:58 | 40.56025 | -74.99971 | 18409 ft | 375 kts | 256° |
| 2026-05-05 12:58 | 40.55150 | -75.03239 | 18900 ft | 379 kts | 245° |
| 2026-05-05 12:59 | 40.53798 | -75.06208 | 19431 ft | 382 kts | 236° |
| 2026-05-05 12:59 | 40.52202 | -75.08979 | 19851 ft | 387 kts | 233° |
| 2026-05-05 12:59 | 40.50494 | -75.11718 | 20338 ft | 390 kts | 232° |
| 2026-05-05 13:00 | 40.46962 | -75.17207 | 21254 ft | 395 kts | 232° |
| 2026-05-05 13:00 | 40.45174 | -75.19981 | 21651 ft | 399 kts | 232° |
| 2026-05-05 13:01 | 40.39805 | -75.28385 | 22927 ft | 407 kts | 232° |
| 2026-05-05 13:01 | 40.37981 | -75.31254 | 23288 ft | 410 kts | 232° |
| 2026-05-05 13:01 | 40.36157 | -75.34124 | 23682 ft | 413 kts | 232° |
| 2026-05-05 13:01 | 40.34316 | -75.37022 | 24040 ft | 417 kts | 232° |
| 2026-05-05 13:02 | 40.32466 | -75.39929 | 24463 ft | 418 kts | 232° |
| 2026-05-05 13:02 | 40.30597 | -75.42866 | 24823 ft | 421 kts | 232° |
| 2026-05-05 13:02 | 40.28735 | -75.45789 | 25199 ft | 424 kts | 232° |
| 2026-05-05 13:02 | 40.26850 | -75.48746 | 25586 ft | 425 kts | 232° |
| 2026-05-05 13:03 | 40.24946 | -75.51729 | 25923 ft | 428 kts | 232° |
| 2026-05-05 13:03 | 40.23034 | -75.54725 | 26268 ft | 431 kts | 232° |
| 2026-05-05 13:03 | 40.21191 | -75.57819 | 26569 ft | 433 kts | 236° |
| 2026-05-05 13:03 | 40.19470 | -75.61039 | 26918 ft | 434 kts | 238° |
| 2026-05-05 13:04 | 40.17803 | -75.64346 | 27216 ft | 437 kts | 239° |
| 2026-05-05 13:04 | 40.16159 | -75.67682 | 27563 ft | 438 kts | 239° |
| 2026-05-05 13:04 | 40.14508 | -75.71053 | 27828 ft | 442 kts | 239° |
| 2026-05-05 13:04 | 40.12843 | -75.74438 | 28246 ft | 441 kts | 238° |
| 2026-05-05 13:05 | 40.11201 | -75.77758 | 28715 ft | 440 kts | 238° |
| 2026-05-05 13:05 | 40.09537 | -75.81102 | 29120 ft | 439 kts | 238° |
| 2026-05-05 13:05 | 40.07872 | -75.84431 | 29511 ft | 439 kts | 238° |
| 2026-05-05 13:05 | 40.06203 | -75.87750 | 29864 ft | 439 kts | 238° |
| 2026-05-05 13:06 | 40.04532 | -75.91063 | 30258 ft | 437 kts | 238° |
| 2026-05-05 13:06 | 40.02868 | -75.94352 | 30631 ft | 436 kts | 238° |
| 2026-05-05 13:06 | 40.01203 | -75.97637 | 30972 ft | 435 kts | 238° |
| 2026-05-05 13:06 | 39.99536 | -76.00919 | 31316 ft | 434 kts | 238° |
| 2026-05-05 13:07 | 39.97848 | -76.04235 | 31605 ft | 434 kts | 238° |
| 2026-05-05 13:07 | 39.96182 | -76.07507 | 31865 ft | 434 kts | 238° |
| 2026-05-05 13:07 | 39.94505 | -76.10795 | 32109 ft | 435 kts | 238° |
| 2026-05-05 13:07 | 39.92823 | -76.14092 | 32369 ft | 435 kts | 238° |
| 2026-05-05 13:08 | 39.91151 | -76.17364 | 32646 ft | 434 kts | 238° |
| 2026-05-05 13:08 | 39.89496 | -76.20601 | 32936 ft | 433 kts | 238° |
| 2026-05-05 13:08 | 39.87825 | -76.23863 | 33203 ft | 432 kts | 238° |
| 2026-05-05 13:08 | 39.86143 | -76.27147 | 33448 ft | 431 kts | 238° |
| 2026-05-05 13:09 | 39.84490 | -76.30370 | 33673 ft | 431 kts | 239° |
| 2026-05-05 13:09 | 39.82826 | -76.33611 | 33889 ft | 431 kts | 239° |
| 2026-05-05 13:09 | 39.79484 | -76.40108 | 33937 ft | 431 kts | 239° |
| 2026-05-05 13:10 | 39.76151 | -76.46573 | 33942 ft | 432 kts | 239° |
| 2026-05-05 13:10 | 39.72818 | -76.53027 | 33943 ft | 432 kts | 239° |
| 2026-05-05 13:11 | 39.69456 | -76.59524 | 33943 ft | 433 kts | 239° |
| 2026-05-05 13:11 | 39.66089 | -76.66016 | 33945 ft | 432 kts | 238° |
| 2026-05-05 13:12 | 39.62728 | -76.72483 | 33939 ft | 434 kts | 238° |
| 2026-05-05 13:12 | 39.59352 | -76.78967 | 33938 ft | 434 kts | 238° |
| 2026-05-05 13:13 | 39.55997 | -76.85395 | 33944 ft | 433 kts | 238° |
| 2026-05-05 13:13 | 39.52609 | -76.91866 | 33946 ft | 434 kts | 238° |
| 2026-05-05 13:14 | 39.48927 | -76.98075 | 33947 ft | 437 kts | 230° |
| 2026-05-05 13:14 | 39.44474 | -77.03412 | 33947 ft | 441 kts | 223° |
| 2026-05-05 13:15 | 39.39689 | -77.08410 | 33945 ft | 441 kts | 221° |
| 2026-05-05 13:15 | 39.34885 | -77.13333 | 33952 ft | 440 kts | 222° |
| 2026-05-05 13:16 | 39.30131 | -77.18241 | 33956 ft | 440 kts | 222° |
| 2026-05-05 13:16 | 39.25354 | -77.23209 | 33959 ft | 440 kts | 223° |
| 2026-05-05 13:17 | 39.20585 | -77.28181 | 33959 ft | 440 kts | 223° |
| 2026-05-05 13:17 | 39.15827 | -77.33141 | 33960 ft | 440 kts | 223° |
| 2026-05-05 13:18 | 39.11072 | -77.38091 | 33960 ft | 440 kts | 223° |
| 2026-05-05 13:18 | 39.06323 | -77.43025 | 33957 ft | 439 kts | 223° |
| 2026-05-05 13:19 | 39.01591 | -77.47935 | 33961 ft | 440 kts | 223° |
| 2026-05-05 13:19 | 38.96818 | -77.52879 | 33961 ft | 440 kts | 223° |
| 2026-05-05 13:20 | 38.92062 | -77.57798 | 33958 ft | 440 kts | 223° |
| 2026-05-05 13:20 | 38.87289 | -77.62724 | 33973 ft | 440 kts | 223° |
| 2026-05-05 13:21 | 38.82497 | -77.67664 | 33971 ft | 441 kts | 223° |
| 2026-05-05 13:21 | 38.77731 | -77.72564 | 33969 ft | 440 kts | 223° |
| 2026-05-05 13:22 | 38.72941 | -77.77480 | 33974 ft | 440 kts | 223° |
| 2026-05-05 13:22 | 38.68182 | -77.82357 | 33976 ft | 440 kts | 223° |
| 2026-05-05 13:23 | 38.63696 | -77.87595 | 33983 ft | 436 kts | 231° |
| 2026-05-05 13:23 | 38.59826 | -77.93506 | 33983 ft | 433 kts | 236° |
| 2026-05-05 13:24 | 38.56196 | -77.99631 | 33981 ft | 433 kts | 237° |
| 2026-05-05 13:24 | 38.52612 | -78.05759 | 33983 ft | 432 kts | 237° |
| 2026-05-05 13:25 | 38.49002 | -78.11890 | 33979 ft | 434 kts | 237° |
| 2026-05-05 13:25 | 38.45368 | -78.18009 | 33980 ft | 434 kts | 237° |
| 2026-05-05 13:26 | 38.41752 | -78.24155 | 33966 ft | 432 kts | 239° |
| 2026-05-05 13:26 | 38.38507 | -78.30540 | 33969 ft | 430 kts | 243° |
| 2026-05-05 13:27 | 38.35408 | -78.37051 | 33974 ft | 430 kts | 243° |
| 2026-05-05 13:27 | 38.32312 | -78.43536 | 33973 ft | 429 kts | 243° |
| 2026-05-05 13:28 | 38.29184 | -78.50011 | 33972 ft | 430 kts | 243° |
| 2026-05-05 13:28 | 38.26030 | -78.56475 | 33972 ft | 431 kts | 243° |
| 2026-05-05 13:29 | 38.22866 | -78.62926 | 33982 ft | 428 kts | 243° |
| 2026-05-05 13:29 | 38.19711 | -78.69339 | 33988 ft | 431 kts | 242° |
| 2026-05-05 13:30 | 38.16530 | -78.75791 | 33995 ft | 432 kts | 243° |
| 2026-05-05 13:30 | 38.13337 | -78.82250 | 33997 ft | 432 kts | 243° |
| 2026-05-05 13:31 | 38.10128 | -78.88725 | 33998 ft | 432 kts | 243° |
| 2026-05-05 13:31 | 38.06942 | -78.95149 | 33990 ft | 433 kts | 243° |
| 2026-05-05 13:32 | 38.03748 | -79.01570 | 33986 ft | 432 kts | 243° |
| 2026-05-05 13:32 | 38.00538 | -79.08012 | 33983 ft | 430 kts | 243° |
| 2026-05-05 13:33 | 37.97351 | -79.14394 | 34000 ft | 428 kts | 243° |
| 2026-05-05 13:33 | 37.94159 | -79.20780 | 34003 ft | 429 kts | 244° |
| 2026-05-05 13:34 | 37.90969 | -79.27143 | 34010 ft | 427 kts | 244° |
| 2026-05-05 13:34 | 37.87776 | -79.33501 | 34019 ft | 428 kts | 244° |
| 2026-05-05 13:35 | 37.84594 | -79.39812 | 34017 ft | 427 kts | 244° |
| 2026-05-05 13:35 | 37.81392 | -79.46135 | 34008 ft | 427 kts | 244° |
| 2026-05-05 13:36 | 37.78199 | -79.52428 | 34005 ft | 428 kts | 244° |
| 2026-05-05 13:36 | 37.75006 | -79.58707 | 34009 ft | 424 kts | 244° |
| 2026-05-05 13:37 | 37.71812 | -79.64986 | 34015 ft | 426 kts | 244° |
| 2026-05-05 13:37 | 37.68617 | -79.71255 | 34014 ft | 423 kts | 244° |
| 2026-05-05 13:38 | 37.65435 | -79.77476 | 34019 ft | 422 kts | 244° |
| 2026-05-05 13:38 | 37.62259 | -79.83688 | 34026 ft | 425 kts | 244° |
| 2026-05-05 13:39 | 37.59069 | -79.89906 | 34027 ft | 422 kts | 244° |
| 2026-05-05 13:39 | 37.55872 | -79.96124 | 34035 ft | 421 kts | 244° |
| 2026-05-05 13:40 | 37.52702 | -80.02280 | 34041 ft | 421 kts | 244° |
| 2026-05-05 13:40 | 37.49515 | -80.08465 | 34041 ft | 421 kts | 244° |
| 2026-05-05 13:41 | 37.46310 | -80.14672 | 34038 ft | 422 kts | 244° |
| 2026-05-05 13:41 | 37.43114 | -80.20845 | 34040 ft | 424 kts | 244° |
| 2026-05-05 13:42 | 37.39909 | -80.27022 | 34042 ft | 419 kts | 244° |
| 2026-05-05 13:42 | 37.36723 | -80.33151 | 34049 ft | 422 kts | 244° |
| 2026-05-05 13:43 | 37.33507 | -80.39333 | 34056 ft | 421 kts | 244° |
| 2026-05-05 13:43 | 37.30317 | -80.45448 | 34061 ft | 421 kts | 244° |
| 2026-05-05 13:44 | 37.27094 | -80.51622 | 34064 ft | 420 kts | 245° |
| 2026-05-05 13:44 | 37.24039 | -80.57824 | 34062 ft | 417 kts | 246° |
| 2026-05-05 13:45 | 37.21095 | -80.64034 | 34060 ft | 416 kts | 247° |
| 2026-05-05 13:45 | 37.18139 | -80.70255 | 34055 ft | 417 kts | 246° |
| 2026-05-05 13:46 | 37.15160 | -80.76478 | 34049 ft | 417 kts | 246° |
| 2026-05-05 13:46 | 37.12171 | -80.82685 | 34050 ft | 416 kts | 246° |
| 2026-05-05 13:47 | 37.09180 | -80.88869 | 34051 ft | 416 kts | 246° |
| 2026-05-05 13:47 | 37.06188 | -80.95039 | 34055 ft | 414 kts | 247° |
| 2026-05-05 13:48 | 37.03196 | -81.01203 | 34060 ft | 416 kts | 246° |
| 2026-05-05 13:48 | 37.00180 | -81.07399 | 34053 ft | 416 kts | 246° |
| 2026-05-05 13:49 | 36.97190 | -81.13523 | 34067 ft | 412 kts | 246° |
| 2026-05-05 13:49 | 36.94201 | -81.19640 | 34064 ft | 415 kts | 247° |
| 2026-05-05 13:50 | 36.91221 | -81.25732 | 34077 ft | 413 kts | 247° |
| 2026-05-05 13:50 | 36.88227 | -81.31835 | 34075 ft | 413 kts | 248° |
| 2026-05-05 13:51 | 36.85238 | -81.37920 | 34070 ft | 409 kts | 248° |
| 2026-05-05 13:51 | 36.82257 | -81.43977 | 34075 ft | 411 kts | 247° |
| 2026-05-05 13:52 | 36.79278 | -81.50029 | 34072 ft | 410 kts | 248° |
| 2026-05-05 13:52 | 36.76294 | -81.56068 | 34058 ft | 410 kts | 248° |
| 2026-05-05 13:53 | 36.73301 | -81.62114 | 34049 ft | 409 kts | 248° |
| 2026-05-05 13:53 | 36.70269 | -81.68120 | 34050 ft | 409 kts | 247° |
| 2026-05-05 13:54 | 36.67206 | -81.74075 | 34056 ft | 408 kts | 247° |
| 2026-05-05 13:54 | 36.64117 | -81.80068 | 34069 ft | 411 kts | 246° |
| 2026-05-05 13:55 | 36.61050 | -81.86007 | 34068 ft | 409 kts | 247° |
| 2026-05-05 13:55 | 36.57977 | -81.91966 | 34060 ft | 407 kts | 248° |
| 2026-05-05 13:56 | 36.54923 | -81.97872 | 34078 ft | 409 kts | 248° |
| 2026-05-05 13:56 | 36.51845 | -82.03821 | 34075 ft | 405 kts | 248° |
| 2026-05-05 13:57 | 36.48803 | -82.09695 | 34072 ft | 407 kts | 248° |
| 2026-05-05 13:57 | 36.45726 | -82.15643 | 34058 ft | 409 kts | 248° |
| 2026-05-05 13:58 | 36.42659 | -82.21528 | 34053 ft | 405 kts | 248° |
| 2026-05-05 13:58 | 36.39595 | -82.27412 | 34055 ft | 410 kts | 248° |
| 2026-05-05 13:59 | 36.34938 | -82.36337 | 34050 ft | 409 kts | 248° |
| 2026-05-05 14:00 | 36.30294 | -82.45207 | 34054 ft | 409 kts | 249° |
| 2026-05-05 14:00 | 36.27206 | -82.51095 | 34045 ft | 408 kts | 249° |
| 2026-05-05 14:01 | 36.24134 | -82.56930 | 34052 ft | 406 kts | 249° |
| 2026-05-05 14:01 | 36.21050 | -82.62809 | 34052 ft | 408 kts | 249° |
| 2026-05-05 14:02 | 36.17963 | -82.68665 | 34054 ft | 409 kts | 249° |
| 2026-05-05 14:02 | 36.14836 | -82.74594 | 34051 ft | 409 kts | 249° |
| 2026-05-05 14:03 | 36.11728 | -82.80464 | 34049 ft | 409 kts | 249° |
| 2026-05-05 14:03 | 36.08590 | -82.86386 | 34046 ft | 411 kts | 249° |
| 2026-05-05 14:04 | 36.05466 | -82.92265 | 34041 ft | 409 kts | 249° |
| 2026-05-05 14:04 | 36.02341 | -82.98146 | 34033 ft | 410 kts | 249° |
| 2026-05-05 14:05 | 35.99226 | -83.03992 | 34038 ft | 410 kts | 249° |
| 2026-05-05 14:05 | 35.96070 | -83.09910 | 34035 ft | 409 kts | 249° |
| 2026-05-05 14:06 | 35.92932 | -83.15776 | 34036 ft | 410 kts | 249° |
| 2026-05-05 14:06 | 35.89840 | -83.21675 | 34036 ft | 409 kts | 251° |
| 2026-05-05 14:07 | 35.86904 | -83.27639 | 34043 ft | 403 kts | 251° |
| 2026-05-05 14:07 | 35.84022 | -83.33563 | 34052 ft | 405 kts | 251° |
| 2026-05-05 14:08 | 35.81113 | -83.39513 | 34051 ft | 406 kts | 252° |
| 2026-05-05 14:08 | 35.78194 | -83.45432 | 34049 ft | 407 kts | 251° |
| 2026-05-05 14:09 | 35.75248 | -83.51374 | 34049 ft | 406 kts | 251° |
| 2026-05-05 14:09 | 35.72267 | -83.57271 | 34044 ft | 410 kts | 250° |
| 2026-05-05 14:10 | 35.69127 | -83.63088 | 34043 ft | 408 kts | 249° |
| 2026-05-05 14:10 | 35.65926 | -83.68927 | 34042 ft | 411 kts | 248° |
| 2026-05-05 14:11 | 35.62760 | -83.74715 | 34041 ft | 408 kts | 249° |
| 2026-05-05 14:11 | 35.59598 | -83.80524 | 34038 ft | 410 kts | 249° |
| 2026-05-05 14:12 | 35.56425 | -83.86359 | 34037 ft | 412 kts | 249° |
| 2026-05-05 14:12 | 35.53254 | -83.92186 | 34034 ft | 411 kts | 249° |
| 2026-05-05 14:13 | 35.50090 | -83.97968 | 34040 ft | 410 kts | 249° |
| 2026-05-05 14:13 | 35.46905 | -84.03803 | 34034 ft | 411 kts | 249° |
| 2026-05-05 14:14 | 35.43735 | -84.09586 | 34049 ft | 409 kts | 249° |
| 2026-05-05 14:14 | 35.40576 | -84.15339 | 34047 ft | 408 kts | 249° |
| 2026-05-05 14:15 | 35.37403 | -84.21137 | 34048 ft | 412 kts | 249° |
| 2026-05-05 14:15 | 35.34222 | -84.26914 | 34055 ft | 410 kts | 249° |
| 2026-05-05 14:16 | 35.31012 | -84.32744 | 34060 ft | 408 kts | 249° |
| 2026-05-05 14:16 | 35.27823 | -84.38518 | 34052 ft | 411 kts | 249° |
| 2026-05-05 14:17 | 35.24630 | -84.44302 | 34058 ft | 413 kts | 249° |
| 2026-05-05 14:17 | 35.21430 | -84.50070 | 34049 ft | 408 kts | 249° |
| 2026-05-05 14:18 | 35.18242 | -84.55814 | 34048 ft | 409 kts | 249° |
| 2026-05-05 14:18 | 35.15043 | -84.61589 | 34039 ft | 412 kts | 249° |
| 2026-05-05 14:19 | 35.11837 | -84.67357 | 34032 ft | 414 kts | 249° |
| 2026-05-05 14:19 | 35.08594 | -84.73167 | 34026 ft | 414 kts | 249° |
| 2026-05-05 14:20 | 35.05328 | -84.79016 | 34026 ft | 416 kts | 248° |
| 2026-05-05 14:20 | 35.02088 | -84.84805 | 34023 ft | 412 kts | 249° |
| 2026-05-05 14:21 | 34.98874 | -84.90537 | 34026 ft | 414 kts | 249° |
| 2026-05-05 14:21 | 34.95636 | -84.96306 | 34031 ft | 408 kts | 249° |
| 2026-05-05 14:22 | 34.92412 | -85.02048 | 34028 ft | 412 kts | 249° |
| 2026-05-05 14:22 | 34.89177 | -85.07808 | 34027 ft | 414 kts | 249° |
| 2026-05-05 14:23 | 34.85925 | -85.13560 | 34023 ft | 408 kts | 249° |
| 2026-05-05 14:23 | 34.82717 | -85.19236 | 34012 ft | 408 kts | 249° |
| 2026-05-05 14:24 | 34.79512 | -85.24919 | 34019 ft | 410 kts | 249° |
| 2026-05-05 14:24 | 34.76026 | -85.30540 | 34027 ft | 420 kts | 243° |
| 2026-05-05 14:25 | 34.72134 | -85.35847 | 34020 ft | 422 kts | 242° |
| 2026-05-05 14:25 | 34.68171 | -85.41144 | 34020 ft | 421 kts | 242° |
| 2026-05-05 14:26 | 34.64263 | -85.46416 | 34017 ft | 418 kts | 242° |
| 2026-05-05 14:26 | 34.60419 | -85.51650 | 34015 ft | 415 kts | 243° |
| 2026-05-05 14:27 | 34.56588 | -85.56899 | 34022 ft | 419 kts | 243° |
| 2026-05-05 14:27 | 34.52726 | -85.62191 | 34017 ft | 420 kts | 243° |
| 2026-05-05 14:28 | 34.48848 | -85.67487 | 34025 ft | 419 kts | 242° |
| 2026-05-05 14:28 | 34.44984 | -85.72749 | 34016 ft | 417 kts | 242° |
| 2026-05-05 14:29 | 34.41137 | -85.77982 | 34014 ft | 416 kts | 242° |
| 2026-05-05 14:29 | 34.37309 | -85.83173 | 34028 ft | 413 kts | 242° |
| 2026-05-05 14:30 | 34.33492 | -85.88372 | 34018 ft | 417 kts | 243° |
| 2026-05-05 14:30 | 34.29632 | -85.93606 | 34027 ft | 415 kts | 242° |
| 2026-05-05 14:31 | 34.25793 | -85.98799 | 34022 ft | 412 kts | 242° |
| 2026-05-05 14:31 | 34.21997 | -86.03927 | 34029 ft | 414 kts | 242° |
| 2026-05-05 14:32 | 34.18183 | -86.09079 | 34019 ft | 411 kts | 242° |
| 2026-05-05 14:32 | 34.14357 | -86.14236 | 34025 ft | 412 kts | 242° |
| 2026-05-05 14:33 | 34.10548 | -86.19363 | 34022 ft | 409 kts | 242° |
| 2026-05-05 14:33 | 34.06740 | -86.24486 | 34013 ft | 412 kts | 242° |
| 2026-05-05 14:34 | 34.02924 | -86.29611 | 34026 ft | 410 kts | 242° |
| 2026-05-05 14:34 | 33.99120 | -86.34696 | 34031 ft | 410 kts | 242° |
| 2026-05-05 14:35 | 33.95288 | -86.39833 | 34029 ft | 411 kts | 242° |
| 2026-05-05 14:35 | 33.91476 | -86.44909 | 34030 ft | 407 kts | 242° |
| 2026-05-05 14:36 | 33.87675 | -86.49987 | 34029 ft | 411 kts | 242° |
| 2026-05-05 14:36 | 33.83846 | -86.55087 | 34028 ft | 406 kts | 242° |
| 2026-05-05 14:37 | 33.80063 | -86.60117 | 34029 ft | 409 kts | 241° |
| 2026-05-05 14:37 | 33.76258 | -86.65178 | 34029 ft | 409 kts | 241° |
| 2026-05-05 14:38 | 33.72428 | -86.70260 | 34037 ft | 409 kts | 241° |
| 2026-05-05 14:38 | 33.68617 | -86.75299 | 34040 ft | 406 kts | 241° |
| 2026-05-05 14:39 | 33.64812 | -86.80332 | 34048 ft | 408 kts | 240° |
| 2026-05-05 14:39 | 33.61028 | -86.85330 | 34048 ft | 408 kts | 240° |
| 2026-05-05 14:40 | 33.57215 | -86.90364 | 34044 ft | 408 kts | 241° |
| 2026-05-05 14:40 | 33.53417 | -86.95366 | 34043 ft | 407 kts | 240° |
| 2026-05-05 14:41 | 33.49612 | -87.00360 | 34039 ft | 403 kts | 240° |
| 2026-05-05 14:41 | 33.45813 | -87.05354 | 34036 ft | 408 kts | 240° |
| 2026-05-05 14:42 | 33.42011 | -87.10345 | 34036 ft | 404 kts | 240° |
| 2026-05-05 14:42 | 33.38237 | -87.15280 | 34031 ft | 403 kts | 240° |
| 2026-05-05 14:43 | 33.34422 | -87.20279 | 34034 ft | 407 kts | 240° |
| 2026-05-05 14:43 | 33.30588 | -87.25291 | 34028 ft | 411 kts | 240° |
| 2026-05-05 14:44 | 33.26749 | -87.30293 | 34024 ft | 407 kts | 240° |
| 2026-05-05 14:44 | 33.22949 | -87.35229 | 34023 ft | 406 kts | 240° |
| 2026-05-05 14:45 | 33.19111 | -87.40228 | 34022 ft | 406 kts | 240° |
| 2026-05-05 14:45 | 33.15287 | -87.45203 | 34023 ft | 409 kts | 240° |
| 2026-05-05 14:46 | 33.11476 | -87.50131 | 34021 ft | 404 kts | 240° |
| 2026-05-05 14:46 | 33.07635 | -87.55109 | 34020 ft | 409 kts | 240° |
| 2026-05-05 14:47 | 33.03788 | -87.60092 | 34020 ft | 409 kts | 240° |
| 2026-05-05 14:47 | 32.99965 | -87.65020 | 34017 ft | 406 kts | 239° |
| 2026-05-05 14:48 | 32.96082 | -87.70032 | 34016 ft | 411 kts | 239° |
| 2026-05-05 14:48 | 32.92226 | -87.74998 | 34011 ft | 411 kts | 239° |
| 2026-05-05 14:49 | 32.88342 | -87.79984 | 34011 ft | 405 kts | 239° |
| 2026-05-05 14:49 | 32.84517 | -87.84899 | 34012 ft | 410 kts | 239° |
| 2026-05-05 14:50 | 32.80651 | -87.89859 | 34004 ft | 410 kts | 239° |
| 2026-05-05 14:50 | 32.76771 | -87.94829 | 33995 ft | 409 kts | 239° |
| 2026-05-05 14:51 | 32.72896 | -87.99788 | 33997 ft | 411 kts | 239° |
| 2026-05-05 14:51 | 32.69022 | -88.04733 | 33994 ft | 409 kts | 239° |
| 2026-05-05 14:52 | 32.65160 | -88.09653 | 33999 ft | 409 kts | 239° |
| 2026-05-05 14:52 | 32.61283 | -88.14591 | 33995 ft | 411 kts | 239° |
| 2026-05-05 14:53 | 32.57395 | -88.19540 | 33996 ft | 408 kts | 239° |
| 2026-05-05 14:53 | 32.53532 | -88.24444 | 33994 ft | 409 kts | 239° |
| 2026-05-05 14:54 | 32.49636 | -88.29393 | 33997 ft | 410 kts | 239° |
| 2026-05-05 14:54 | 32.45746 | -88.34325 | 33999 ft | 413 kts | 239° |
| 2026-05-05 14:55 | 32.41843 | -88.39253 | 34000 ft | 409 kts | 239° |
| 2026-05-05 14:55 | 32.37940 | -88.44167 | 34003 ft | 413 kts | 238° |
| 2026-05-05 14:56 | 32.33619 | -88.48780 | 34002 ft | 423 kts | 231° |
| 2026-05-05 14:56 | 32.28933 | -88.53034 | 34006 ft | 426 kts | 230° |
| 2026-05-05 14:57 | 32.24171 | -88.57257 | 34003 ft | 427 kts | 230° |
| 2026-05-05 14:57 | 32.19471 | -88.61453 | 34002 ft | 427 kts | 230° |
| 2026-05-05 14:58 | 32.14756 | -88.65691 | 34000 ft | 425 kts | 230° |
| 2026-05-05 14:58 | 32.10035 | -88.69955 | 34003 ft | 428 kts | 230° |
| 2026-05-05 14:59 | 32.05308 | -88.74224 | 34002 ft | 429 kts | 230° |
| 2026-05-05 14:59 | 32.00583 | -88.78483 | 33998 ft | 428 kts | 229° |
| 2026-05-05 15:00 | 31.96628 | -88.82044 | 33996 ft | 429 kts | 229° |
| 2026-05-05 15:00 | 31.91100 | -88.87022 | 33997 ft | 430 kts | 229° |
| 2026-05-05 15:01 | 31.86353 | -88.91286 | 33998 ft | 430 kts | 229° |
| 2026-05-05 15:01 | 31.83956 | -88.93443 | 34102 ft | 434 kts | 229° |
| 2026-05-05 15:01 | 31.81558 | -88.95597 | 34406 ft | 433 kts | 229° |
| 2026-05-05 15:02 | 31.79191 | -88.97716 | 34781 ft | 430 kts | 230° |
| 2026-05-05 15:02 | 31.76797 | -88.99857 | 35019 ft | 431 kts | 229° |
| 2026-05-05 15:02 | 31.74409 | -89.01994 | 35213 ft | 432 kts | 229° |
| 2026-05-05 15:02 | 31.72015 | -89.04137 | 35373 ft | 433 kts | 229° |
| 2026-05-05 15:03 | 31.69647 | -89.06255 | 35584 ft | 433 kts | 229° |
| 2026-05-05 15:03 | 31.67243 | -89.08400 | 35865 ft | 431 kts | 229° |
| 2026-05-05 15:03 | 31.64860 | -89.10525 | 36000 ft | 430 kts | 229° |
| 2026-05-05 15:03 | 31.62461 | -89.12658 | 36005 ft | 424 kts | 229° |
| 2026-05-05 15:04 | 31.57740 | -89.16848 | 36007 ft | 419 kts | 230° |
| 2026-05-05 15:04 | 31.53025 | -89.21051 | 36004 ft | 422 kts | 230° |
| 2026-05-05 15:05 | 31.45970 | -89.27323 | 36008 ft | 421 kts | 230° |
| 2026-05-05 15:06 | 31.41304 | -89.31461 | 36008 ft | 421 kts | 230° |
| 2026-05-05 15:06 | 31.36648 | -89.35583 | 36010 ft | 420 kts | 229° |
| 2026-05-05 15:07 | 31.31957 | -89.39741 | 36007 ft | 423 kts | 229° |
| 2026-05-05 15:07 | 31.27271 | -89.43884 | 35997 ft | 424 kts | 229° |
| 2026-05-05 15:08 | 31.22596 | -89.48000 | 35994 ft | 422 kts | 229° |
| 2026-05-05 15:08 | 31.17877 | -89.52167 | 35994 ft | 426 kts | 229° |
| 2026-05-05 15:09 | 31.13170 | -89.56308 | 35992 ft | 423 kts | 229° |
| 2026-05-05 15:09 | 31.08477 | -89.60427 | 35993 ft | 425 kts | 229° |
| 2026-05-05 15:10 | 31.03755 | -89.64573 | 35993 ft | 424 kts | 229° |
| 2026-05-05 15:10 | 30.99012 | -89.68731 | 35992 ft | 426 kts | 228° |
| 2026-05-05 15:11 | 30.94302 | -89.72846 | 35992 ft | 425 kts | 228° |
| 2026-05-05 15:11 | 30.89585 | -89.76966 | 35998 ft | 424 kts | 228° |
| 2026-05-05 15:12 | 30.84831 | -89.81119 | 35999 ft | 424 kts | 228° |
| 2026-05-05 15:12 | 30.80137 | -89.85214 | 36002 ft | 425 kts | 228° |
| 2026-05-05 15:13 | 30.75407 | -89.89334 | 35995 ft | 424 kts | 228° |
| 2026-05-05 15:13 | 30.70669 | -89.93460 | 35987 ft | 427 kts | 228° |
| 2026-05-05 15:14 | 30.65924 | -89.97581 | 35979 ft | 425 kts | 228° |
| 2026-05-05 15:14 | 30.61164 | -90.01712 | 35981 ft | 427 kts | 227° |
| 2026-05-05 15:15 | 30.56439 | -90.05806 | 35973 ft | 424 kts | 228° |
| 2026-05-05 15:15 | 30.51691 | -90.09917 | 35971 ft | 426 kts | 228° |
| 2026-05-05 15:16 | 30.46943 | -90.14024 | 35974 ft | 427 kts | 228° |
| 2026-05-05 15:16 | 30.42182 | -90.18137 | 35976 ft | 426 kts | 227° |
| 2026-05-05 15:17 | 30.37454 | -90.22208 | 35975 ft | 424 kts | 227° |
| 2026-05-05 15:17 | 30.32727 | -90.26286 | 35980 ft | 426 kts | 227° |
| 2026-05-05 15:18 | 30.27964 | -90.30383 | 35978 ft | 425 kts | 227° |
| 2026-05-05 15:18 | 30.23203 | -90.34473 | 35983 ft | 426 kts | 227° |
| 2026-05-05 15:19 | 30.18434 | -90.38565 | 35981 ft | 427 kts | 227° |
| 2026-05-05 15:19 | 30.13673 | -90.42645 | 35987 ft | 425 kts | 227° |
| 2026-05-05 15:20 | 30.08946 | -90.46687 | 35983 ft | 425 kts | 227° |
| 2026-05-05 15:20 | 30.04190 | -90.50760 | 35981 ft | 427 kts | 227° |
| 2026-05-05 15:21 | 29.99396 | -90.54856 | 35984 ft | 428 kts | 227° |
| 2026-05-05 15:21 | 29.94624 | -90.58926 | 35983 ft | 427 kts | 227° |
| 2026-05-05 15:22 | 29.89834 | -90.63004 | 35978 ft | 428 kts | 227° |
| 2026-05-05 15:22 | 29.85049 | -90.67079 | 35977 ft | 429 kts | 226° |
| 2026-05-05 15:23 | 29.80250 | -90.71156 | 35977 ft | 428 kts | 226° |
| 2026-05-05 15:23 | 29.75462 | -90.75221 | 35974 ft | 428 kts | 226° |
| 2026-05-05 15:24 | 29.70665 | -90.79290 | 35976 ft | 429 kts | 226° |
| 2026-05-05 15:24 | 29.66034 | -90.83534 | 35977 ft | 419 kts | 232° |
| 2026-05-05 15:25 | 29.61928 | -90.88252 | 35975 ft | 416 kts | 236° |
| 2026-05-05 15:25 | 29.58027 | -90.93079 | 35974 ft | 415 kts | 237° |
| 2026-05-05 15:26 | 29.54117 | -90.97949 | 35973 ft | 415 kts | 237° |
| 2026-05-05 15:26 | 29.50189 | -91.02813 | 35967 ft | 415 kts | 237° |
| 2026-05-05 15:27 | 29.46249 | -91.07655 | 35970 ft | 415 kts | 237° |
| 2026-05-05 15:27 | 29.42299 | -91.12498 | 35975 ft | 415 kts | 236° |
| 2026-05-05 15:28 | 29.38374 | -91.17293 | 35977 ft | 414 kts | 236° |
| 2026-05-05 15:28 | 29.34424 | -91.22124 | 35974 ft | 416 kts | 236° |
| 2026-05-05 15:29 | 29.30474 | -91.26943 | 35975 ft | 415 kts | 236° |
| 2026-05-05 15:29 | 29.26537 | -91.31735 | 35978 ft | 415 kts | 236° |
| 2026-05-05 15:30 | 29.22578 | -91.36557 | 35979 ft | 417 kts | 236° |
| 2026-05-05 15:30 | 29.18613 | -91.41376 | 35979 ft | 416 kts | 236° |
| 2026-05-05 15:31 | 29.14629 | -91.46210 | 35974 ft | 417 kts | 236° |
| 2026-05-05 15:31 | 29.10670 | -91.51009 | 35969 ft | 415 kts | 236° |
| 2026-05-05 15:32 | 29.06711 | -91.55807 | 35975 ft | 416 kts | 236° |
| 2026-05-05 15:32 | 29.02747 | -91.60601 | 35973 ft | 416 kts | 236° |
| 2026-05-05 15:33 | 28.98776 | -91.65392 | 35972 ft | 415 kts | 235° |
| 2026-05-05 15:33 | 28.94796 | -91.70200 | 35973 ft | 417 kts | 235° |
| 2026-05-05 15:34 | 28.90828 | -91.74979 | 35971 ft | 415 kts | 235° |
| 2026-05-05 15:34 | 28.86842 | -91.79784 | 35972 ft | 419 kts | 235° |
| 2026-05-05 15:35 | 28.82850 | -91.84582 | 35970 ft | 417 kts | 235° |
| 2026-05-05 15:35 | 28.78861 | -91.89366 | 35969 ft | 417 kts | 235° |
| 2026-05-05 15:36 | 28.74868 | -91.94158 | 35967 ft | 418 kts | 234° |
| 2026-05-05 15:36 | 28.70889 | -91.98920 | 35965 ft | 415 kts | 234° |
| 2026-05-05 15:37 | 28.66907 | -92.03688 | 35968 ft | 417 kts | 234° |
| 2026-05-05 15:37 | 28.62909 | -92.08471 | 35965 ft | 418 kts | 234° |
| 2026-05-05 15:38 | 28.58899 | -92.13253 | 35961 ft | 416 kts | 234° |
| 2026-05-05 15:38 | 28.54897 | -92.18029 | 35960 ft | 419 kts | 234° |
| 2026-05-05 15:39 | 28.50877 | -92.22817 | 35957 ft | 419 kts | 234° |
| 2026-05-05 15:39 | 28.46863 | -92.27592 | 35969 ft | 419 kts | 234° |
| 2026-05-05 15:40 | 28.42841 | -92.32370 | 35960 ft | 418 kts | 234° |
| 2026-05-05 15:40 | 28.38822 | -92.37138 | 35957 ft | 419 kts | 234° |
| 2026-05-05 15:41 | 28.34794 | -92.41911 | 35947 ft | 418 kts | 234° |
| 2026-05-05 15:41 | 28.30776 | -92.46670 | 35942 ft | 421 kts | 234° |
| 2026-05-05 15:42 | 28.26731 | -92.51455 | 35942 ft | 420 kts | 234° |
| 2026-05-05 15:42 | 28.22670 | -92.56247 | 35941 ft | 420 kts | 234° |
| 2026-05-05 15:43 | 28.18618 | -92.61028 | 35939 ft | 421 kts | 234° |
| 2026-05-05 15:43 | 28.14566 | -92.65804 | 35947 ft | 420 kts | 233° |
| 2026-05-05 15:44 | 28.10403 | -92.70409 | 35945 ft | 426 kts | 227° |
| 2026-05-05 15:44 | 28.05514 | -92.74345 | 35945 ft | 436 kts | 220° |
| 2026-05-05 15:45 | 28.00281 | -92.77949 | 35945 ft | 437 kts | 218° |
| 2026-05-05 15:45 | 27.95076 | -92.81454 | 35947 ft | 439 kts | 218° |
| 2026-05-05 15:46 | 27.89829 | -92.85024 | 35947 ft | 439 kts | 219° |
| 2026-05-05 15:46 | 27.84624 | -92.88599 | 35948 ft | 440 kts | 219° |
| 2026-05-05 15:47 | 27.79411 | -92.92190 | 35947 ft | 437 kts | 219° |
| 2026-05-05 15:47 | 27.74222 | -92.95770 | 35946 ft | 438 kts | 219° |
| 2026-05-05 15:48 | 27.69015 | -92.99361 | 35942 ft | 440 kts | 219° |
| 2026-05-05 15:48 | 27.63787 | -93.02963 | 35947 ft | 439 kts | 219° |
| 2026-05-05 15:49 | 27.58613 | -93.06519 | 35942 ft | 437 kts | 218° |
| 2026-05-05 15:49 | 27.53375 | -93.10122 | 35943 ft | 441 kts | 218° |
| 2026-05-05 15:50 | 27.48160 | -93.13702 | 35941 ft | 438 kts | 219° |
| 2026-05-05 15:50 | 27.42948 | -93.17274 | 35941 ft | 440 kts | 219° |
| 2026-05-05 15:51 | 27.37722 | -93.20850 | 35942 ft | 439 kts | 218° |
| 2026-05-05 15:51 | 27.32520 | -93.24406 | 35939 ft | 440 kts | 218° |
| 2026-05-05 15:52 | 27.27297 | -93.27975 | 35938 ft | 440 kts | 218° |
| 2026-05-05 15:52 | 27.22049 | -93.31553 | 35938 ft | 439 kts | 218° |
| 2026-05-05 15:53 | 27.16828 | -93.35107 | 35935 ft | 439 kts | 218° |
| 2026-05-05 15:53 | 27.11611 | -93.38660 | 35941 ft | 441 kts | 218° |
| 2026-05-05 15:54 | 27.06349 | -93.42238 | 35939 ft | 441 kts | 218° |
| 2026-05-05 15:54 | 27.01106 | -93.45796 | 35936 ft | 441 kts | 218° |
| 2026-05-05 15:55 | 26.95847 | -93.49366 | 35935 ft | 441 kts | 218° |
| 2026-05-05 15:55 | 26.90602 | -93.52920 | 35934 ft | 441 kts | 218° |
| 2026-05-05 15:56 | 26.85363 | -93.56467 | 35933 ft | 441 kts | 218° |
| 2026-05-05 15:56 | 26.80098 | -93.60028 | 35935 ft | 442 kts | 218° |
| 2026-05-05 15:57 | 26.74827 | -93.63589 | 35938 ft | 442 kts | 218° |
| 2026-05-05 15:57 | 26.69567 | -93.67137 | 35934 ft | 442 kts | 217° |
| 2026-05-05 15:58 | 26.64288 | -93.70695 | 35931 ft | 441 kts | 217° |
| 2026-05-05 15:58 | 26.59031 | -93.74232 | 35930 ft | 442 kts | 217° |
| 2026-05-05 15:59 | 26.53769 | -93.77771 | 35930 ft | 442 kts | 217° |
| 2026-05-05 15:59 | 26.48517 | -93.81306 | 35928 ft | 442 kts | 217° |
| 2026-05-05 16:00 | 26.43260 | -93.84847 | 35928 ft | 442 kts | 217° |
| 2026-05-05 16:00 | 26.37979 | -93.88399 | 35928 ft | 443 kts | 217° |
| 2026-05-05 16:01 | 26.32670 | -93.91968 | 35927 ft | 444 kts | 217° |
| 2026-05-05 16:01 | 26.27423 | -93.95488 | 35927 ft | 442 kts | 216° |
| 2026-05-05 16:02 | 26.22151 | -93.99020 | 35926 ft | 443 kts | 216° |
| 2026-05-05 16:02 | 26.16876 | -94.02554 | 35926 ft | 443 kts | 216° |
| 2026-05-05 16:03 | 26.11565 | -94.06106 | 35925 ft | 442 kts | 216° |
| 2026-05-05 16:03 | 26.06301 | -94.09621 | 35924 ft | 443 kts | 216° |
| 2026-05-05 16:04 | 26.01006 | -94.13155 | 35924 ft | 444 kts | 216° |
| 2026-05-05 16:04 | 25.95737 | -94.16666 | 35922 ft | 441 kts | 216° |
| 2026-05-05 16:05 | 25.90456 | -94.20182 | 35924 ft | 443 kts | 216° |
| 2026-05-05 16:05 | 25.85178 | -94.23695 | 35918 ft | 443 kts | 216° |
| 2026-05-05 16:06 | 25.79865 | -94.27227 | 35912 ft | 445 kts | 216° |
| 2026-05-05 16:06 | 25.74567 | -94.30743 | 35916 ft | 445 kts | 216° |
| 2026-05-05 16:07 | 25.69270 | -94.34256 | 35919 ft | 446 kts | 216° |
| 2026-05-05 16:07 | 25.63946 | -94.37783 | 35918 ft | 446 kts | 216° |
| 2026-05-05 16:08 | 25.58613 | -94.41310 | 35918 ft | 445 kts | 216° |
| 2026-05-05 16:08 | 25.53299 | -94.44821 | 35916 ft | 446 kts | 216° |
| 2026-05-05 16:09 | 25.47951 | -94.48352 | 35916 ft | 446 kts | 216° |
| 2026-05-05 16:09 | 25.42663 | -94.51841 | 35916 ft | 446 kts | 216° |
| 2026-05-05 16:10 | 25.37300 | -94.55375 | 35914 ft | 446 kts | 216° |
| 2026-05-05 16:10 | 25.31990 | -94.58869 | 35915 ft | 448 kts | 216° |
| 2026-05-05 16:11 | 25.26597 | -94.62321 | 35911 ft | 446 kts | 214° |
| 2026-05-05 16:12 | 25.15792 | -94.69096 | 35913 ft | 448 kts | 214° |
| 2026-05-05 16:13 | 25.02213 | -94.77617 | 35907 ft | 450 kts | 214° |
| 2026-05-05 16:13 | 24.96755 | -94.81042 | 35905 ft | 450 kts | 214° |
| 2026-05-05 16:14 | 24.85886 | -94.87853 | 35905 ft | 450 kts | 214° |
| 2026-05-05 16:15 | 24.75018 | -94.94676 | 35906 ft | 449 kts | 214° |
| 2026-05-05 16:16 | 24.64166 | -95.01499 | 35905 ft | 451 kts | 214° |
| 2026-05-05 16:17 | 24.55994 | -95.06622 | 35901 ft | 450 kts | 214° |
| 2026-05-05 16:18 | 24.47821 | -95.11736 | 35900 ft | 449 kts | 214° |
| 2026-05-05 16:19 | 24.39650 | -95.16832 | 35903 ft | 451 kts | 214° |
| 2026-05-05 16:19 | 24.31478 | -95.21906 | 35899 ft | 450 kts | 214° |
| 2026-05-05 16:20 | 24.20594 | -95.28664 | 35899 ft | 450 kts | 214° |
| 2026-05-05 16:22 | 24.06981 | -95.37099 | 35897 ft | 448 kts | 213° |
| 2026-05-05 16:23 | 23.96143 | -95.43800 | 35894 ft | 447 kts | 213° |
| 2026-05-05 16:23 | 23.88004 | -95.48823 | 35893 ft | 449 kts | 213° |
| 2026-05-05 16:24 | 23.82550 | -95.52183 | 35889 ft | 447 kts | 213° |
| 2026-05-05 16:25 | 23.74430 | -95.57183 | 35884 ft | 446 kts | 213° |
| 2026-05-05 16:25 | 23.66318 | -95.62170 | 35884 ft | 446 kts | 213° |
| 2026-05-05 16:26 | 23.55464 | -95.68826 | 35885 ft | 446 kts | 212° |
| 2026-05-05 16:27 | 23.50039 | -95.72148 | 35883 ft | 446 kts | 212° |
| 2026-05-05 16:27 | 23.44644 | -95.75449 | 35884 ft | 446 kts | 212° |
| 2026-05-05 16:28 | 23.39196 | -95.78780 | 35884 ft | 446 kts | 212° |
| 2026-05-05 16:28 | 23.33810 | -95.82069 | 35884 ft | 445 kts | 212° |
| 2026-05-05 16:29 | 23.28383 | -95.85382 | 35884 ft | 446 kts | 212° |
| 2026-05-05 16:29 | 23.22975 | -95.88679 | 35883 ft | 447 kts | 212° |
| 2026-05-05 16:30 | 23.17564 | -95.91972 | 35884 ft | 446 kts | 212° |
| 2026-05-05 16:30 | 23.12130 | -95.95280 | 35884 ft | 446 kts | 212° |
| 2026-05-05 16:31 | 23.06743 | -95.98566 | 35883 ft | 445 kts | 212° |
| 2026-05-05 16:31 | 23.01321 | -96.01863 | 35881 ft | 446 kts | 212° |
| 2026-05-05 16:32 | 22.95916 | -96.05143 | 35870 ft | 446 kts | 212° |
| 2026-05-05 16:32 | 22.90479 | -96.08438 | 35862 ft | 448 kts | 212° |
| 2026-05-05 16:33 | 22.85027 | -96.11739 | 35864 ft | 447 kts | 212° |
| 2026-05-05 16:33 | 22.79574 | -96.15038 | 35863 ft | 448 kts | 212° |
| 2026-05-05 16:34 | 22.74170 | -96.18304 | 35863 ft | 447 kts | 212° |
| 2026-05-05 16:34 | 22.68709 | -96.21602 | 35864 ft | 447 kts | 212° |
| 2026-05-05 16:35 | 22.63290 | -96.24872 | 35863 ft | 447 kts | 212° |
| 2026-05-05 16:35 | 22.57871 | -96.28138 | 35865 ft | 446 kts | 212° |
| 2026-05-05 16:36 | 22.52422 | -96.31419 | 35873 ft | 447 kts | 211° |
| 2026-05-05 16:36 | 22.47004 | -96.34679 | 35876 ft | 447 kts | 211° |
| 2026-05-05 16:37 | 22.41557 | -96.37955 | 35876 ft | 448 kts | 211° |
| 2026-05-05 16:37 | 22.36084 | -96.41243 | 35876 ft | 448 kts | 211° |
| 2026-05-05 16:38 | 22.30647 | -96.44506 | 35875 ft | 448 kts | 211° |
| 2026-05-05 16:38 | 22.25186 | -96.47780 | 35874 ft | 448 kts | 211° |
| 2026-05-05 16:39 | 22.19755 | -96.51033 | 35869 ft | 448 kts | 211° |
| 2026-05-05 16:39 | 22.14308 | -96.54293 | 35866 ft | 448 kts | 211° |
| 2026-05-05 16:40 | 22.08858 | -96.57554 | 35860 ft | 448 kts | 211° |
| 2026-05-05 16:40 | 22.03383 | -96.60827 | 35864 ft | 450 kts | 211° |
| 2026-05-05 16:41 | 21.97939 | -96.64078 | 35865 ft | 448 kts | 211° |
| 2026-05-05 16:41 | 21.92472 | -96.67339 | 35872 ft | 449 kts | 211° |
| 2026-05-05 16:42 | 21.86972 | -96.70618 | 35868 ft | 448 kts | 211° |
| 2026-05-05 16:42 | 21.81520 | -96.73865 | 35870 ft | 448 kts | 211° |
| 2026-05-05 16:43 | 21.76075 | -96.77106 | 35867 ft | 448 kts | 210° |
| 2026-05-05 16:43 | 21.70619 | -96.80351 | 35862 ft | 447 kts | 210° |
| 2026-05-05 16:44 | 21.65178 | -96.83583 | 35859 ft | 448 kts | 210° |
| 2026-05-05 16:44 | 21.59689 | -96.86839 | 35857 ft | 449 kts | 210° |
| 2026-05-05 16:45 | 21.54252 | -96.90062 | 35861 ft | 447 kts | 210° |
| 2026-05-05 16:45 | 21.48781 | -96.93303 | 35865 ft | 447 kts | 210° |
| 2026-05-05 16:46 | 21.43359 | -96.96511 | 35863 ft | 447 kts | 210° |
| 2026-05-05 16:46 | 21.37909 | -96.99734 | 35862 ft | 447 kts | 210° |
| 2026-05-05 16:47 | 21.32447 | -97.02960 | 35862 ft | 447 kts | 210° |
| 2026-05-05 16:47 | 21.27005 | -97.06174 | 35858 ft | 447 kts | 210° |
| 2026-05-05 16:48 | 21.21527 | -97.09405 | 35851 ft | 448 kts | 210° |
| 2026-05-05 16:48 | 21.16083 | -97.12611 | 35845 ft | 447 kts | 210° |
| 2026-05-05 16:49 | 21.10637 | -97.15818 | 35845 ft | 447 kts | 210° |
| 2026-05-05 16:49 | 21.05144 | -97.19050 | 35843 ft | 448 kts | 210° |
| 2026-05-05 16:50 | 20.99687 | -97.22257 | 35843 ft | 448 kts | 210° |
| 2026-05-05 16:50 | 20.94224 | -97.25466 | 35845 ft | 449 kts | 209° |
| 2026-05-05 16:51 | 20.88737 | -97.28685 | 35851 ft | 447 kts | 210° |
| 2026-05-05 16:51 | 20.83287 | -97.31880 | 35860 ft | 448 kts | 209° |
| 2026-05-05 16:52 | 20.77821 | -97.35082 | 35870 ft | 447 kts | 209° |
| 2026-05-05 16:52 | 20.72339 | -97.38291 | 35873 ft | 447 kts | 209° |
| 2026-05-05 16:53 | 20.66878 | -97.41486 | 35881 ft | 448 kts | 209° |
| 2026-05-05 16:53 | 20.61555 | -97.44898 | 35885 ft | 448 kts | 216° |
| 2026-05-05 16:54 | 20.56932 | -97.49342 | 35884 ft | 448 kts | 227° |
| 2026-05-05 16:54 | 20.52822 | -97.54327 | 35892 ft | 449 kts | 230° |
| 2026-05-05 16:55 | 20.48811 | -97.59474 | 35899 ft | 449 kts | 230° |
| 2026-05-05 16:55 | 20.44837 | -97.64580 | 35923 ft | 449 kts | 230° |
| 2026-05-05 16:56 | 20.40804 | -97.69720 | 35938 ft | 450 kts | 229° |
| 2026-05-05 16:56 | 20.36792 | -97.74799 | 35951 ft | 449 kts | 229° |
| 2026-05-05 16:57 | 20.32721 | -97.79935 | 36010 ft | 451 kts | 229° |
| 2026-05-05 16:57 | 20.28696 | -97.84999 | 36082 ft | 452 kts | 229° |
| 2026-05-05 16:58 | 20.24634 | -97.90104 | 36145 ft | 450 kts | 229° |
| 2026-05-05 16:58 | 20.20584 | -97.95189 | 35698 ft | 445 kts | 229° |
| 2026-05-05 16:59 | 20.18594 | -97.97684 | 35189 ft | 440 kts | 229° |
| 2026-05-05 16:59 | 20.16626 | -98.00153 | 34590 ft | 438 kts | 229° |
| 2026-05-05 16:59 | 20.14675 | -98.02599 | 33931 ft | 436 kts | 229° |
| 2026-05-05 16:59 | 20.12713 | -98.05058 | 33207 ft | 436 kts | 229° |
| 2026-05-05 17:00 | 20.10754 | -98.07510 | 32504 ft | 436 kts | 229° |
| 2026-05-05 17:00 | 20.08793 | -98.09961 | 32070 ft | 430 kts | 229° |
| 2026-05-05 17:00 | 20.06856 | -98.12380 | 31625 ft | 424 kts | 229° |
| 2026-05-05 17:00 | 20.04984 | -98.14762 | 31165 ft | 423 kts | 232° |
| 2026-05-05 17:01 | 20.03311 | -98.17352 | 30695 ft | 436 kts | 240° |
| 2026-05-05 17:01 | 20.01984 | -98.20296 | 30494 ft | 439 kts | 249° |
| 2026-05-05 17:01 | 20.00277 | -98.26530 | 30507 ft | 444 kts | 257° |
| 2026-05-05 17:02 | 19.98974 | -98.32931 | 30521 ft | 442 kts | 258° |
| 2026-05-05 17:02 | 19.97747 | -98.39331 | 30524 ft | 443 kts | 258° |
| 2026-05-05 17:03 | 19.96505 | -98.45715 | 30537 ft | 443 kts | 258° |
| 2026-05-05 17:03 | 19.95234 | -98.52120 | 30514 ft | 444 kts | 258° |
| 2026-05-05 17:04 | 19.94595 | -98.55302 | 30262 ft | 444 kts | 258° |
| 2026-05-05 17:04 | 19.93953 | -98.58485 | 29930 ft | 438 kts | 258° |
| 2026-05-05 17:04 | 19.93318 | -98.61621 | 29496 ft | 432 kts | 258° |
| 2026-05-05 17:04 | 19.92688 | -98.64727 | 29031 ft | 427 kts | 258° |
| 2026-05-05 17:05 | 19.92060 | -98.67817 | 28513 ft | 424 kts | 258° |
| 2026-05-05 17:05 | 19.91442 | -98.70850 | 28007 ft | 420 kts | 258° |
| 2026-05-05 17:05 | 19.90836 | -98.73880 | 27558 ft | 416 kts | 259° |
| 2026-05-05 17:05 | 19.90358 | -98.76877 | 27069 ft | 414 kts | 262° |
| 2026-05-05 17:06 | 19.89982 | -98.79940 | 26216 ft | 420 kts | 264° |
| 2026-05-05 17:06 | 19.89663 | -98.82985 | 25601 ft | 419 kts | 264° |
| 2026-05-05 17:06 | 19.89355 | -98.86069 | 25010 ft | 418 kts | 264° |
| 2026-05-05 17:06 | 19.89102 | -98.89123 | 24452 ft | 415 kts | 268° |
| 2026-05-05 17:07 | 19.89075 | -98.92160 | 23825 ft | 415 kts | 272° |
| 2026-05-05 17:07 | 19.89208 | -98.95203 | 23239 ft | 413 kts | 275° |
| 2026-05-05 17:07 | 19.89418 | -98.98245 | 22704 ft | 410 kts | 275° |
| 2026-05-05 17:07 | 19.89650 | -99.01214 | 22206 ft | 407 kts | 276° |
| 2026-05-05 17:08 | 19.89887 | -99.04202 | 21713 ft | 404 kts | 276° |
| 2026-05-05 17:08 | 19.90119 | -99.07182 | 21198 ft | 402 kts | 275° |
| 2026-05-05 17:08 | 19.90339 | -99.10119 | 20685 ft | 400 kts | 275° |
| 2026-05-05 17:08 | 19.90549 | -99.13024 | 20175 ft | 399 kts | 275° |
| 2026-05-05 17:09 | 19.90756 | -99.15962 | 19672 ft | 395 kts | 274° |
| 2026-05-05 17:09 | 19.90954 | -99.18852 | 19133 ft | 389 kts | 274° |
| 2026-05-05 17:09 | 19.91143 | -99.21641 | 18576 ft | 379 kts | 274° |
| 2026-05-05 17:09 | 19.91324 | -99.24361 | 18411 ft | 357 kts | 274° |
| 2026-05-05 17:10 | 19.91468 | -99.26941 | 18291 ft | 338 kts | 271° |
| 2026-05-05 17:10 | 19.91417 | -99.29349 | 18166 ft | 322 kts | 263° |
| 2026-05-05 17:10 | 19.91068 | -99.31677 | 18147 ft | 319 kts | 257° |
| 2026-05-05 17:10 | 19.90539 | -99.33984 | 18148 ft | 322 kts | 254° |
| 2026-05-05 17:11 | 19.89954 | -99.36248 | 18161 ft | 321 kts | 253° |
| 2026-05-05 17:11 | 19.89355 | -99.38532 | 18172 ft | 321 kts | 253° |
| 2026-05-05 17:11 | 19.88765 | -99.40826 | 18178 ft | 321 kts | 253° |
| 2026-05-05 17:11 | 19.88178 | -99.43106 | 18186 ft | 320 kts | 251° |
| 2026-05-05 17:12 | 19.87374 | -99.45322 | 18182 ft | 320 kts | 240° |
| 2026-05-05 17:12 | 19.86117 | -99.47233 | 18189 ft | 316 kts | 227° |
| 2026-05-05 17:12 | 19.84621 | -99.48937 | 18193 ft | 316 kts | 223° |
| 2026-05-05 17:12 | 19.83073 | -99.50581 | 18193 ft | 316 kts | 223° |
| 2026-05-05 17:13 | 19.81453 | -99.52170 | 18200 ft | 314 kts | 215° |
| 2026-05-05 17:13 | 19.79598 | -99.53359 | 18199 ft | 310 kts | 198° |
| 2026-05-05 17:13 | 19.77507 | -99.53735 | 18205 ft | 304 kts | 173° |
| 2026-05-05 17:13 | 19.75474 | -99.53194 | 18202 ft | 298 kts | 152° |
| 2026-05-05 17:14 | 19.73722 | -99.52044 | 18189 ft | 295 kts | 139° |
| 2026-05-05 17:14 | 19.72328 | -99.50485 | 18006 ft | 289 kts | 124° |
| 2026-05-05 17:14 | 19.71246 | -99.48696 | 17675 ft | 287 kts | 120° |
| 2026-05-05 17:14 | 19.70255 | -99.46881 | 17313 ft | 286 kts | 120° |
| 2026-05-05 17:15 | 19.69245 | -99.45050 | 16954 ft | 285 kts | 120° |
| 2026-05-05 17:15 | 19.68224 | -99.43264 | 16590 ft | 284 kts | 121° |
| 2026-05-05 17:15 | 19.67186 | -99.41492 | 16233 ft | 283 kts | 121° |
| 2026-05-05 17:15 | 19.66139 | -99.39725 | 15867 ft | 282 kts | 121° |
| 2026-05-05 17:16 | 19.65104 | -99.37981 | 15520 ft | 281 kts | 121° |
| 2026-05-05 17:16 | 19.64055 | -99.36214 | 15185 ft | 280 kts | 121° |
| 2026-05-05 17:16 | 19.63030 | -99.34484 | 14833 ft | 279 kts | 121° |
| 2026-05-05 17:16 | 19.61992 | -99.32731 | 14469 ft | 278 kts | 121° |
| 2026-05-05 17:17 | 19.60984 | -99.31030 | 14242 ft | 271 kts | 122° |
| 2026-05-05 17:17 | 19.59932 | -99.29425 | 14143 ft | 260 kts | 128° |
| 2026-05-05 17:17 | 19.58665 | -99.28072 | 13975 ft | 256 kts | 139° |
| 2026-05-05 17:17 | 19.57219 | -99.26921 | 13586 ft | 262 kts | 143° |
| 2026-05-05 17:18 | 19.55738 | -99.25830 | 13254 ft | 259 kts | 143° |
| 2026-05-05 17:18 | 19.54267 | -99.24733 | 12928 ft | 255 kts | 143° |
| 2026-05-05 17:18 | 19.52763 | -99.23757 | 12642 ft | 252 kts | 155° |
| 2026-05-05 17:18 | 19.51079 | -99.23324 | 12369 ft | 247 kts | 176° |
| 2026-05-05 17:19 | 19.49387 | -99.23331 | 12053 ft | 243 kts | 181° |
| 2026-05-05 17:19 | 19.47690 | -99.23390 | 11772 ft | 238 kts | 180° |
| 2026-05-05 17:19 | 19.46067 | -99.23407 | 11520 ft | 232 kts | 179° |
| 2026-05-05 17:19 | 19.44455 | -99.23388 | 11257 ft | 227 kts | 178° |
| 2026-05-05 17:20 | 19.42881 | -99.23359 | 11000 ft | 226 kts | 179° |
| 2026-05-05 17:20 | 19.41293 | -99.23330 | 10741 ft | 226 kts | 179° |
| 2026-05-05 17:20 | 19.39739 | -99.23180 | 10481 ft | 225 kts | 166° |
| 2026-05-05 17:20 | 19.38368 | -99.22438 | 10236 ft | 221 kts | 134° |
| 2026-05-05 17:21 | 19.37551 | -99.21124 | 10000 ft | 211 kts | 110° |
| 2026-05-05 17:21 | 19.37189 | -99.19642 | 9774 ft | 203 kts | 94° |
| 2026-05-05 17:21 | 19.37334 | -99.18193 | 9573 ft | 196 kts | 68° |
| 2026-05-05 17:22 | 19.38677 | -99.15756 | 9110 ft | 183 kts | 58° |
| 2026-05-05 17:22 | 19.39336 | -99.14606 | 8897 ft | 183 kts | 59° |
| 2026-05-05 17:22 | 19.39979 | -99.13454 | 8580 ft | 181 kts | 59° |
| 2026-05-05 17:22 | 19.40616 | -99.12314 | 8322 ft | 179 kts | 59° |
| 2026-05-05 17:23 | 19.41260 | -99.11162 | 8056 ft | 180 kts | 59° |
| 2026-05-05 17:23 | 19.41887 | -99.10038 | 7761 ft | 180 kts | 59° |
| 2026-05-05 17:23 | 19.42528 | -99.08896 | 7480 ft | 178 kts | 59° |
| 2026-05-05 17:23 | 19.43147 | -99.07791 | 7331 ft | 161 kts | 59° |
| 2026-05-05 17:24 | 19.43593 | -99.06995 | 7330 ft | 90 kts | 59° |
| 2026-05-05 17:24 | 19.43811 | -99.06608 | 7329 ft | 39 kts | 59° |
| 2026-05-05 17:24 | 19.43931 | -99.06379 | 7329 ft | 33 kts | 69° |
| 2026-05-05 17:24 | 19.43967 | -99.06148 | 7328 ft | 29 kts | 92° |
| 2026-05-05 17:25 | 19.43924 | -99.06070 | 7328 ft | 10 kts | 203° |
| 2026-05-05 17:25 | 19.43895 | -99.06113 | 7328 ft | 10 kts | 239° |
| 2026-05-05 17:25 | 19.43843 | -99.06207 | 7329 ft | 11 kts | 239° |
| 2026-05-05 17:25 | 19.43802 | -99.06280 | 7329 ft | 11 kts | 239° |
| 2026-05-05 17:26 | 19.43760 | -99.06356 | 7329 ft | 12 kts | 240° |
| 2026-05-05 17:26 | 19.43716 | -99.06435 | 7329 ft | 12 kts | 240° |
| 2026-05-05 17:26 | 19.43671 | -99.06518 | 7329 ft | 13 kts | 239° |
| 2026-05-05 17:26 | 19.43619 | -99.06612 | 7329 ft | 15 kts | 240° |
| 2026-05-05 17:27 | 19.43560 | -99.06718 | 7330 ft | 17 kts | 240° |
| 2026-05-05 17:27 | 19.43521 | -99.06782 | 7330 ft | 4 kts | 213° |
| 2026-05-05 17:27 | 19.43502 | -99.06795 | 7330 ft | 2 kts | 213° |
| 2026-05-05 17:27 | 19.43464 | -99.06821 | 7330 ft | 12 kts | 213° |
| 2026-05-05 17:28 | 19.43406 | -99.06866 | 7330 ft | 15 kts | 219° |
| 2026-05-05 17:28 | 19.43402 | -99.06870 | 7330 ft | 15 kts | 220° |
| 2026-05-05 17:28 | 19.43352 | -99.06944 | 7330 ft | 13 kts | 244° |
| 2026-05-05 17:28 | 19.43313 | -99.07031 | 7330 ft | 11 kts | 245° |
| 2026-05-05 17:29 | 19.43281 | -99.07102 | 7330 ft | 9 kts | 245° |
| 2026-05-05 17:29 | 19.43254 | -99.07162 | 7330 ft | 8 kts | 245° |
| 2026-05-05 17:29 | 19.43239 | -99.07211 | 7331 ft | 6 kts | 266° |
| 2026-05-05 17:29 | 19.43234 | -99.07280 | 7331 ft | 12 kts | 266° |
| 2026-05-05 17:30 | 19.43194 | -99.07376 | 7331 ft | 17 kts | 237° |
| 2026-05-05 17:30 | 19.43117 | -99.07501 | 7331 ft | 23 kts | 237° |
| 2026-05-05 17:30 | 19.43021 | -99.07658 | 7331 ft | 25 kts | 238° |
| 2026-05-05 17:30 | 19.42923 | -99.07797 | 7332 ft | 22 kts | 221° |
| 2026-05-05 17:31 | 19.42791 | -99.07878 | 7332 ft | 20 kts | 200° |
| 2026-05-05 17:31 | 19.42671 | -99.07828 | 7332 ft | 18 kts | 146° |
| 2026-05-05 17:31 | 19.42584 | -99.07797 | 7332 ft | 9 kts | 199° |
| 2026-05-05 17:31 | 19.42529 | -99.07826 | 7332 ft | 7 kts | 207° |
| 2026-05-05 17:32 | 19.42496 | -99.07844 | 7332 ft | 1 kts | 207° |
| 2026-05-05 17:32 | 19.42492 | -99.07846 | 7332 ft | 0 kts | 207° |